Terminal Aerodrome Forecast
Issued by NWS

Home | Current Version | Previous Version | Text Only | Print | Product List | Glossary On
Versions: 1 2 3 4 5 6 7 8 9 10 11 12 13 14 15 16 17 18 19 20 21 22 23 24 25 26 27 28 29 30 31 32 33 34 35 36 37 38 39 40 41 42 43 44 45 46 47 48
000
FTUS43 KGRB 210500
TAFRHI
TAF
KRHI 210527Z 2106/2206 VRB02KT 6SM BR SCT025 BKN200
      TEMPO 2106/2108 3SM BR BKN025
     FM210800 VRB02KT 3SM BR SCT025 BKN200
      TEMPO 2108/2112 1/2SM FG VV002
     FM211700 13006KT P6SM VCSH SCT035 BKN090
      TEMPO 2120/2124 2SM TSRA BKN020CB OVC035
     FM220000 12004KT 4SM BR VCSH SCT015 BKN035
     FM220400 VRB03KT 1SM BR BKN003 BKN010=

USA.gov is the U.S. government's official web portal to all federal, state and local government web resources and services.